• Join FlightAware (Why Join?)
  • Login
  • US Flag 
11:58PM EDT


 

Airport Tracker/Info


-or-


 

Live Flight TrackerFlight Track Log ✈ SGS9 ✈ 28-Jun-2013 ✈ CYPA - CYQR

Flight Track Log - Related Links

Times and Time Zones

All times are in EDT time to prevent confusion due to time zone crossing. See the SGS9 flight status page for this flight to view local times or setup timezone preferences in your user account.

Time Position Orientation Groundspeed Altitude Reporting Facility
EDT Latitude Longitude Course Direction KTS MPH feet Rate Location/Type
03:32PM 53.1500 -105.8000 149° Southeast 180 207 7,400  Level Winnipeg Center
03:33PM 53.0833 -105.7833 171° South 200 230 9,200 1,860 Climbing Winnipeg Center
03:34PM 53.0333 -105.7500 158° South 210 242 11,200 1,980 Climbing Winnipeg Center
03:35PM 52.8881 -105.5480 171° South  Level Estimated
03:35PM 52.9667 -105.7333 171° South 220 253 13,200  Level Winnipeg Center
03:36PM 52.8337 -105.5274 165° South  Level Estimated
03:36PM 52.9167 -105.7000 158° South 210 242 15,800  Level Winnipeg Center
03:37PM 52.8500 -105.6833 171° South 210 242 17,700 1,800 Climbing Winnipeg Center
03:38PM 52.8000 -105.6500 158° South 220 253 19,500 1,740 Climbing Winnipeg Center
03:39PM 52.7500 -105.6333 169° South 220 253 21,200 1,620 Climbing Winnipeg Center
03:40PM 52.6833 -105.6167 171° South 220 253 22,800 1,500 Climbing Winnipeg Center
03:41PM 52.6167 -105.5833 163° South 230 265 24,200 1,320 Climbing Winnipeg Center
03:42PM 52.5500 -105.5333 155° Southeast 250 288 25,500 1,320 Climbing Winnipeg Center
03:43PM 52.4833 -105.5333 180° South 250 288 26,900 720 Climbing Winnipeg Center
03:44PM 52.4167 -105.4833 155° Southeast 260 299 27,000  Climbing Winnipeg Center
03:45PM 52.3167 -105.4667 174° South 300 345 27,000  Level Winnipeg Center
03:46PM 52.2333 -105.4333 166° South 310 357 27,000  Level Winnipeg Center
03:47PM 52.1500 -105.3833 160° South 320 368 27,000  Level Winnipeg Center
03:48PM 52.0667 -105.3333 160° South 320 368 27,000  Level Winnipeg Center
03:49PM 51.9833 -105.3167 173° South 330 380 27,000  Level Winnipeg Center
03:50PM 51.9000 -105.2833 166° South 320 368 27,000  Level Winnipeg Center
03:51PM 51.8000 -105.2333 163° South 330 380 27,000  Level Winnipeg Center
03:52PM 51.7167 -105.1833 160° South 330 380 27,000  Level Winnipeg Center
03:53PM 51.6333 -105.1833 180° South 320 368 27,000  Level Winnipeg Center
03:54PM 51.5333 -105.1333 163° South 320 368 27,000  Level Winnipeg Center
03:55PM 51.4500 -105.0833 159° South 320 368 27,000  Level Winnipeg Center
03:56PM 51.3667 -105.0667 173° South 320 368 27,000 -600 Level Winnipeg Center
03:57PM 51.2667 -105.0333 168° South 340 391 25,800 -1,380 Descending Winnipeg Center
03:58PM 51.1833 -104.9833 159° South 360 414 24,300 -1,800 Descending Winnipeg Center
03:59PM 51.0833 -104.9333 163° South 350 403 22,300 -1,980 Descending Winnipeg Center
04:00PM 51.0000 -104.9000 166° South 350 403 20,400 -2,040 Descending Winnipeg Center
04:01PM 50.9000 -104.8833 174° South 350 403 18,300 -2,040 Descending Winnipeg Center
04:02PM 50.8000 -104.8333 162° South 340 391 16,400 -2,040 Descending Winnipeg Center
04:03PM 50.7167 -104.8000 166° South 330 380 14,300 -2,220 Descending Winnipeg Center
04:04PM 50.6333 -104.7333 153° Southeast 310 357 12,000 -2,280 Descending Winnipeg Center
04:05PM 50.5833 -104.6667 140° Southeast 280 322 9,800 -2,400 Descending Winnipeg Center
04:06PM 50.5167 -104.6000 148° Southeast 240 276 7,200 -2,460 Descending Winnipeg Center
04:07PM 50.4667 -104.5667 157° South 240 276 4,900 -1,860 Descending Winnipeg Center
04:08PM 50.4167 -104.5833 192° South 200 230 3,500 -1,260 Descending Winnipeg Center
04:09PM 50.4000 -104.6333 242° Southwest 140 161 2,400 -840 Descending Winnipeg Center
04:10PM 50.4000 -104.6667 270° West 100 115 1,900 -540 Descending Winnipeg Center